sensor_id;sensor_type;location;lat;lon;timestamp;pressure;altitude;pressure_sealevel;temperature;humidity
33404;BME280;19751;40.274;18.268;2023-05-20T00:00:55;100884.53;;;18.34;100.00
33404;BME280;19751;40.274;18.268;2023-05-20T00:03:20;100877.91;;;18.30;100.00
33404;BME280;19751;40.274;18.268;2023-05-20T00:05:46;100879.81;;;18.29;100.00
33404;BME280;19751;40.274;18.268;2023-05-20T00:08:12;100868.28;;;18.27;100.00
33404;BME280;19751;40.274;18.268;2023-05-20T00:10:37;100871.84;;;18.28;100.00
33404;BME280;19751;40.274;18.268;2023-05-20T00:13:03;100869.34;;;18.26;100.00
33404;BME280;19751;40.274;18.268;2023-05-20T00:15:29;100873.16;;;18.25;100.00
33404;BME280;19751;40.274;18.268;2023-05-20T00:17:55;100867.47;;;18.27;100.00
33404;BME280;19751;40.274;18.268;2023-05-20T00:20:22;100858.47;;;18.26;100.00
33404;BME280;19751;40.274;18.268;2023-05-20T00:22:47;100856.31;;;18.28;100.00
33404;BME280;19751;40.274;18.268;2023-05-20T00:25:13;100852.75;;;18.28;100.00
33404;BME280;19751;40.274;18.268;2023-05-20T00:27:39;100848.13;;;18.28;100.00
33404;BME280;19751;40.274;18.268;2023-05-20T00:30:06;100853.34;;;18.30;100.00
33404;BME280;19751;40.274;18.268;2023-05-20T00:32:32;100852.28;;;18.31;100.00
33404;BME280;19751;40.274;18.268;2023-05-20T00:34:58;100857.50;;;18.32;100.00
33404;BME280;19751;40.274;18.268;2023-05-20T00:37:25;100855.59;;;18.33;100.00
33404;BME280;19751;40.274;18.268;2023-05-20T00:39:51;100856.44;;;18.33;100.00
33404;BME280;19751;40.274;18.268;2023-05-20T00:42:23;100860.56;;;18.36;100.00
33404;BME280;19751;40.274;18.268;2023-05-20T00:44:49;100862.22;;;18.37;100.00
33404;BME280;19751;40.274;18.268;2023-05-20T00:47:16;100861.53;;;18.42;100.00
33404;BME280;19751;40.274;18.268;2023-05-20T00:49:44;100872.19;;;18.43;100.00
33404;BME280;19751;40.274;18.268;2023-05-20T00:52:10;100875.28;;;18.47;100.00
33404;BME280;19751;40.274;18.268;2023-05-20T00:54:35;100874.09;;;18.43;100.00
33404;BME280;19751;40.274;18.268;2023-05-20T00:57:03;100878.94;;;18.41;100.00
33404;BME280;19751;40.274;18.268;2023-05-20T00:59:30;100874.81;;;18.38;100.00
33404;BME280;19751;40.274;18.268;2023-05-20T01:01:56;100881.09;;;18.38;100.00
33404;BME280;19751;40.274;18.268;2023-05-20T01:04:21;100874.22;;;18.36;100.00
33404;BME280;19751;40.274;18.268;2023-05-20T01:06:47;100881.81;;;18.34;100.00
33404;BME280;19751;40.274;18.268;2023-05-20T01:09:14;100877.66;;;18.31;100.00
33404;BME280;19751;40.274;18.268;2023-05-20T01:12:08;100876.47;;;18.27;100.00
33404;BME280;19751;40.274;18.268;2023-05-20T01:14:48;100877.19;;;18.23;100.00
33404;BME280;19751;40.274;18.268;2023-05-20T01:17:15;100874.69;;;18.21;100.00
33404;BME280;19751;40.274;18.268;2023-05-20T01:19:45;100877.19;;;18.23;100.00
33404;BME280;19751;40.274;18.268;2023-05-20T01:22:12;100875.53;;;18.22;100.00
33404;BME280;19751;40.274;18.268;2023-05-20T01:24:42;100859.16;;;18.22;100.00
33404;BME280;19751;40.274;18.268;2023-05-20T01:27:11;100851.81;;;18.22;100.00
33404;BME280;19751;40.274;18.268;2023-05-20T01:29:38;100851.00;;;18.22;100.00
33404;BME280;19751;40.274;18.268;2023-05-20T01:32:11;100860.00;;;18.22;100.00
33404;BME280;19751;40.274;18.268;2023-05-20T01:34:40;100850.53;;;18.25;100.00
33404;BME280;19751;40.274;18.268;2023-05-20T01:37:07;100846.72;;;18.26;100.00
33404;BME280;19751;40.274;18.268;2023-05-20T01:39:35;100842.56;;;18.23;100.00
33404;BME280;19751;40.274;18.268;2023-05-20T01:42:02;100838.44;;;18.21;100.00
33404;BME280;19751;40.274;18.268;2023-05-20T01:44:29;100843.28;;;18.19;100.00
33404;BME280;19751;40.274;18.268;2023-05-20T01:46:55;100848.72;;;18.19;100.00
33404;BME280;19751;40.274;18.268;2023-05-20T01:49:20;100842.91;;;18.15;100.00
33404;BME280;19751;40.274;18.268;2023-05-20T01:51:46;100838.78;;;18.12;100.00
33404;BME280;19751;40.274;18.268;2023-05-20T01:54:11;100846.59;;;18.09;100.00
33404;BME280;19751;40.274;18.268;2023-05-20T01:56:37;100847.06;;;18.06;100.00
33404;BME280;19751;40.274;18.268;2023-05-20T01:59:02;100842.69;;;18.05;100.00
33404;BME280;19751;40.274;18.268;2023-05-20T02:01:28;100837.47;;;18.03;100.00
33404;BME280;19751;40.274;18.268;2023-05-20T02:03:53;100847.31;;;18.04;100.00
33404;BME280;19751;40.274;18.268;2023-05-20T02:06:19;100843.72;;;18.04;100.00
33404;BME280;19751;40.274;18.268;2023-05-20T02:08:44;100833.09;;;18.02;100.00
33404;BME280;19751;40.274;18.268;2023-05-20T02:11:10;100827.63;;;18.02;100.00
33404;BME280;19751;40.274;18.268;2023-05-20T02:13:35;100834.97;;;18.02;100.00
33404;BME280;19751;40.274;18.268;2023-05-20T02:16:01;100827.88;;;18.01;100.00
33404;BME280;19751;40.274;18.268;2023-05-20T02:18:27;100815.06;;;18.01;100.00
33404;BME280;19751;40.274;18.268;2023-05-20T02:20:53;100830.59;;;18.01;100.00
33404;BME280;19751;40.274;18.268;2023-05-20T02:23:18;100825.16;;;18.01;100.00
33404;BME280;19751;40.274;18.268;2023-05-20T02:25:44;100828.69;;;18.01;100.00
33404;BME280;19751;40.274;18.268;2023-05-20T02:28:09;100820.28;;;18.03;100.00
33404;BME280;19751;40.274;18.268;2023-05-20T02:30:38;100817.56;;;18.03;100.00
33404;BME280;19751;40.274;18.268;2023-05-20T02:33:03;100813.75;;;18.04;100.00
33404;BME280;19751;40.274;18.268;2023-05-20T02:35:29;100803.72;;;18.04;100.00
33404;BME280;19751;40.274;18.268;2023-05-20T02:37:55;100801.44;;;18.01;100.00
33404;BME280;19751;40.274;18.268;2023-05-20T02:40:21;100814.25;;;18.01;100.00
33404;BME280;19751;40.274;18.268;2023-05-20T02:42:47;100806.91;;;18.01;100.00
33404;BME280;19751;40.274;18.268;2023-05-20T02:45:12;100788.91;;;18.00;100.00
33404;BME280;19751;40.274;18.268;2023-05-20T02:47:38;100795.63;;;17.98;100.00
33404;BME280;19751;40.274;18.268;2023-05-20T02:50:03;100777.63;;;17.97;100.00
33404;BME280;19751;40.274;18.268;2023-05-20T02:52:29;100774.91;;;17.97;100.00
33404;BME280;19751;40.274;18.268;2023-05-20T02:54:55;100778.47;;;17.97;100.00
33404;BME280;19751;40.274;18.268;2023-05-20T02:57:21;100785.81;;;17.97;100.00
33404;BME280;19751;40.274;18.268;2023-05-20T02:59:46;100795.38;;;17.99;100.00
33404;BME280;19751;40.274;18.268;2023-05-20T03:02:12;100801.44;;;18.01;100.00
33404;BME280;19751;40.274;18.268;2023-05-20T03:04:37;100797.28;;;17.99;100.00
33404;BME280;19751;40.274;18.268;2023-05-20T03:07:06;100794.81;;;17.97;100.00
33404;BME280;19751;40.274;18.268;2023-05-20T03:09:32;100808.44;;;17.97;100.00
33404;BME280;19751;40.274;18.268;2023-05-20T03:11:57;100807.38;;;17.98;100.00
33404;BME280;19751;40.274;18.268;2023-05-20T03:14:23;100812.00;;;17.98;100.00
33404;BME280;19751;40.274;18.268;2023-05-20T03:16:48;100807.63;;;17.97;100.00
33404;BME280;19751;40.274;18.268;2023-05-20T03:19:14;100800.50;;;17.96;100.00
33404;BME280;19751;40.274;18.268;2023-05-20T03:21:40;100812.25;;;17.96;100.00
33404;BME280;19751;40.274;18.268;2023-05-20T03:24:08;100814.34;;;17.94;100.00
33404;BME280;19751;40.274;18.268;2023-05-20T03:26:33;100815.19;;;17.95;100.00
33404;BME280;19751;40.274;18.268;2023-05-20T03:29:02;100815.19;;;17.95;100.00
33404;BME280;19751;40.274;18.268;2023-05-20T03:31:27;100821.25;;;17.97;100.00
33404;BME280;19751;40.274;18.268;2023-05-20T03:33:53;100830.25;;;17.97;100.00
33404;BME280;19751;40.274;18.268;2023-05-20T03:36:19;100828.34;;;17.98;100.00
33404;BME280;19751;40.274;18.268;2023-05-20T03:38:44;100834.88;;;17.97;100.00
33404;BME280;19751;40.274;18.268;2023-05-20T03:41:10;100837.34;;;17.98;100.00
33404;BME280;19751;40.274;18.268;2023-05-20T03:43:35;100839.00;;;17.99;100.00
33404;BME280;19751;40.274;18.268;2023-05-20T03:46:01;100851.34;;;18.02;100.00
33404;BME280;19751;40.274;18.268;2023-05-20T03:48:26;100846.47;;;18.04;100.00
33404;BME280;19751;40.274;18.268;2023-05-20T03:50:52;100849.78;;;18.06;100.00
33404;BME280;19751;40.274;18.268;2023-05-20T03:53:17;100850.38;;;18.08;100.00
33404;BME280;19751;40.274;18.268;2023-05-20T03:55:44;100853.09;;;18.08;100.00
33404;BME280;19751;40.274;18.268;2023-05-20T03:58:09;100850.38;;;18.08;100.00
33404;BME280;19751;40.274;18.268;2023-05-20T04:00:35;100842.19;;;18.08;100.00
33404;BME280;19751;40.274;18.268;2023-05-20T04:03:01;100837.81;;;18.07;100.00
33404;BME280;19751;40.274;18.268;2023-05-20T04:05:26;100833.91;;;18.03;100.00
33404;BME280;19751;40.274;18.268;2023-05-20T04:07:52;100833.53;;;17.99;100.00
33404;BME280;19751;40.274;18.268;2023-05-20T04:10:18;100829.41;;;17.97;100.00
33404;BME280;19751;40.274;18.268;2023-05-20T04:12:45;100826.09;;;17.95;100.00
33404;BME280;19751;40.274;18.268;2023-05-20T04:15:11;100829.06;;;17.93;100.00
33404;BME280;19751;40.274;18.268;2023-05-20T04:17:36;100818.63;;;17.90;100.00
33404;BME280;19751;40.274;18.268;2023-05-20T04:20:05;100812.09;;;17.91;100.00
33404;BME280;19751;40.274;18.268;2023-05-20T04:22:32;100811.25;;;17.91;100.00
33404;BME280;19751;40.274;18.268;2023-05-20T04:24:57;100809.38;;;17.91;100.00
33404;BME280;19751;40.274;18.268;2023-05-20T04:27:23;100801.19;;;17.91;100.00
33404;BME280;19751;40.274;18.268;2023-05-20T04:29:50;100803.91;;;17.91;100.00
33404;BME280;19751;40.274;18.268;2023-05-20T04:32:19;100805.81;;;17.91;100.00
33404;BME280;19751;40.274;18.268;2023-05-20T04:34:45;100812.69;;;17.93;100.00
33404;BME280;19751;40.274;18.268;2023-05-20T04:37:12;100814.59;;;17.93;100.00
33404;BME280;19751;40.274;18.268;2023-05-20T04:39:38;100808.06;;;17.94;100.00
33404;BME280;19751;40.274;18.268;2023-05-20T04:42:04;100800.50;;;17.96;100.00
33404;BME280;19751;40.274;18.268;2023-05-20T04:44:30;100806.53;;;17.98;100.00
33404;BME280;19751;40.274;18.268;2023-05-20T04:46:56;100801.91;;;17.98;100.00
33404;BME280;19751;40.274;18.268;2023-05-20T04:49:24;100804.38;;;18.00;100.00
33404;BME280;19751;40.274;18.268;2023-05-20T04:51:51;100805.47;;;17.99;100.00
33404;BME280;19751;40.274;18.268;2023-05-20T04:54:16;100791.84;;;17.99;100.00
33404;BME280;19751;40.274;18.268;2023-05-20T04:56:42;100790.53;;;18.01;100.00
33404;BME280;19751;40.274;18.268;2023-05-20T04:59:08;100789.47;;;18.02;100.00
33404;BME280;19751;40.274;18.268;2023-05-20T05:01:35;100790.91;;;18.05;100.00
33404;BME280;19751;40.274;18.268;2023-05-20T05:04:01;100781.66;;;18.06;100.00
33404;BME280;19751;40.274;18.268;2023-05-20T05:06:27;100774.91;;;18.08;100.00
33404;BME280;19751;40.274;18.268;2023-05-20T05:08:52;100777.97;;;18.12;100.00
33404;BME280;19751;40.274;18.268;2023-05-20T05:11:18;100754.84;;;18.14;100.00
33404;BME280;19751;40.274;18.268;2023-05-20T05:13:43;100748.13;;;18.17;100.00
33404;BME280;19751;40.274;18.268;2023-05-20T05:16:09;100735.88;;;18.20;100.00
33404;BME280;19751;40.274;18.268;2023-05-20T05:18:34;100725.34;;;18.23;100.00
33404;BME280;19751;40.274;18.268;2023-05-20T05:21:04;100721.31;;;18.26;100.00
33404;BME280;19751;40.274;18.268;2023-05-20T05:23:31;100715.38;;;18.29;100.00
33404;BME280;19751;40.274;18.268;2023-05-20T05:25:57;100705.03;;;18.31;100.00
33404;BME280;19751;40.274;18.268;2023-05-20T05:28:23;100699.94;;;18.34;100.00
33404;BME280;19751;40.274;18.268;2023-05-20T05:30:49;100701.13;;;18.38;100.00
33404;BME280;19751;40.274;18.268;2023-05-20T05:33:14;100710.47;;;18.43;100.00
33404;BME280;19751;40.274;18.268;2023-05-20T05:35:43;100707.84;;;18.48;100.00
33404;BME280;19751;40.274;18.268;2023-05-20T05:38:09;100707.94;;;18.53;100.00
33404;BME280;19751;40.274;18.268;2023-05-20T05:40:35;100708.88;;;18.58;100.00
33404;BME280;19751;40.274;18.268;2023-05-20T05:43:00;100699.38;;;18.61;100.00
33404;BME280;19751;40.274;18.268;2023-05-20T05:45:26;100705.16;;;18.64;100.00
33404;BME280;19751;40.274;18.268;2023-05-20T05:47:51;100697.94;;;18.70;100.00
33404;BME280;19751;40.274;18.268;2023-05-20T05:50:17;100696.88;;;18.71;100.00
33404;BME280;19751;40.274;18.268;2023-05-20T05:52:42;100699.94;;;18.75;100.00
33404;BME280;19751;40.274;18.268;2023-05-20T05:55:08;100695.06;;;18.77;100.00
33404;BME280;19751;40.274;18.268;2023-05-20T05:57:34;100695.16;;;18.82;100.00
33404;BME280;19751;40.274;18.268;2023-05-20T06:00:01;100697.38;;;18.85;100.00
33404;BME280;19751;40.274;18.268;2023-05-20T06:02:27;100698.56;;;18.89;100.00
33404;BME280;19751;40.274;18.268;2023-05-20T06:04:52;100697.25;;;18.92;100.00
33404;BME280;19751;40.274;18.268;2023-05-20T06:07:18;100698.91;;;18.93;100.00
33404;BME280;19751;40.274;18.268;2023-05-20T06:09:44;100704.94;;;18.95;100.00
33404;BME280;19751;40.274;18.268;2023-05-20T06:12:11;100720.00;;;18.97;100.00
33404;BME280;19751;40.274;18.268;2023-05-20T06:14:36;100736.13;;;18.99;100.00
33404;BME280;19751;40.274;18.268;2023-05-20T06:17:02;100740.25;;;19.01;100.00
33404;BME280;19751;40.274;18.268;2023-05-20T06:19:28;100741.69;;;19.04;100.00
33404;BME280;19751;40.274;18.268;2023-05-20T06:21:55;100747.72;;;19.06;100.00
33404;BME280;19751;40.274;18.268;2023-05-20T06:24:22;100745.91;;;19.11;100.00
33404;BME280;19751;40.274;18.268;2023-05-20T06:26:47;100758.31;;;19.19;100.00
33404;BME280;19751;40.274;18.268;2023-05-20T06:29:14;100752.97;;;19.24;100.00
33404;BME280;19751;40.274;18.268;2023-05-20T06:31:40;100753.06;;;19.29;100.00
33404;BME280;19751;40.274;18.268;2023-05-20T06:34:05;100755.03;;;19.34;100.00
33404;BME280;19751;40.274;18.268;2023-05-20T06:36:31;100746.38;;;19.37;100.00
33404;BME280;19751;40.274;18.268;2023-05-20T06:38:56;100758.75;;;19.45;100.00
33404;BME280;19751;40.274;18.268;2023-05-20T06:41:22;100758.34;;;19.53;100.00
33404;BME280;19751;40.274;18.268;2023-05-20T06:43:47;100749.16;;;19.59;100.00
33404;BME280;19751;40.274;18.268;2023-05-20T06:46:13;100755.34;;;19.66;100.00
33404;BME280;19751;40.274;18.268;2023-05-20T06:48:38;100748.03;;;19.72;100.00
33404;BME280;19751;40.274;18.268;2023-05-20T06:51:07;100740.72;;;19.77;100.00
33404;BME280;19751;40.274;18.268;2023-05-20T06:53:36;100741.31;;;19.79;100.00
33404;BME280;19751;40.274;18.268;2023-05-20T06:56:01;100739.25;;;19.86;100.00
33404;BME280;19751;40.274;18.268;2023-05-20T06:58:27;100737.66;;;19.91;100.00
33404;BME280;19751;40.274;18.268;2023-05-20T07:00:53;100740.69;;;19.94;100.00
33404;BME280;19751;40.274;18.268;2023-05-20T07:03:18;100735.81;;;19.96;100.00
33404;BME280;19751;40.274;18.268;2023-05-20T07:05:44;100727.94;;;20.00;100.00
33404;BME280;19751;40.274;18.268;2023-05-20T07:08:10;100728.28;;;20.03;100.00
33404;BME280;19751;40.274;18.268;2023-05-20T07:10:35;100721.22;;;20.07;100.00
33404;BME280;19751;40.274;18.268;2023-05-20T07:13:01;100726.16;;;20.10;100.00
33404;BME280;19751;40.274;18.268;2023-05-20T07:15:26;100730.06;;;20.15;100.00
33404;BME280;19751;40.274;18.268;2023-05-20T07:17:52;100727.66;;;20.18;100.00
33404;BME280;19751;40.274;18.268;2023-05-20T07:20:17;100728.78;;;20.22;100.00
33404;BME280;19751;40.274;18.268;2023-05-20T07:22:44;100731.03;;;20.25;100.00
33404;BME280;19751;40.274;18.268;2023-05-20T07:25:11;100733.81;;;20.30;100.00
33404;BME280;19751;40.274;18.268;2023-05-20T07:27:37;100728.16;;;20.37;100.00
33404;BME280;19751;40.274;18.268;2023-05-20T07:30:03;100726.63;;;20.46;100.00
33404;BME280;19751;40.274;18.268;2023-05-20T07:32:28;100728.06;;;20.49;100.00
33404;BME280;19751;40.274;18.268;2023-05-20T07:34:54;100719.09;;;20.53;100.00
33404;BME280;19751;40.274;18.268;2023-05-20T07:37:20;100723.53;;;20.59;100.00
33404;BME280;19751;40.274;18.268;2023-05-20T07:39:45;100727.72;;;20.67;100.00
33404;BME280;19751;40.274;18.268;2023-05-20T07:42:11;100737.41;;;20.75;100.00
33404;BME280;19751;40.274;18.268;2023-05-20T07:44:36;100745.94;;;20.78;100.00
33404;BME280;19751;40.274;18.268;2023-05-20T07:47:02;100750.88;;;20.81;100.00
33404;BME280;19751;40.274;18.268;2023-05-20T07:49:27;100737.75;;;20.83;100.00
33404;BME280;19751;40.274;18.268;2023-05-20T07:51:53;100739.16;;;20.86;100.00
33404;BME280;19751;40.274;18.268;2023-05-20T07:54:18;100739.72;;;20.88;100.00
33404;BME280;19751;40.274;18.268;2023-05-20T07:56:44;100741.13;;;20.91;100.00
33404;BME280;19751;40.274;18.268;2023-05-20T07:59:09;100748.28;;;20.97;100.00
33404;BME280;19751;40.274;18.268;2023-05-20T08:01:35;100738.78;;;21.04;100.00
33404;BME280;19751;40.274;18.268;2023-05-20T08:04:01;100740.75;;;21.09;100.00
33404;BME280;19751;40.274;18.268;2023-05-20T08:06:27;100738.38;;;21.18;100.00
33404;BME280;19751;40.274;18.268;2023-05-20T08:08:53;100736.75;;;21.22;100.00
33404;BME280;19751;40.274;18.268;2023-05-20T08:11:19;100734.66;;;21.29;100.00
33404;BME280;19751;40.274;18.268;2023-05-20T08:13:46;100723.75;;;21.34;100.00
33404;BME280;19751;40.274;18.268;2023-05-20T08:16:12;100712.00;;;21.39;100.00
33404;BME280;19751;40.274;18.268;2023-05-20T08:18:37;100714.22;;;21.42;100.00
33404;BME280;19751;40.274;18.268;2023-05-20T08:21:04;100715.63;;;21.44;100.00
33404;BME280;19751;40.274;18.268;2023-05-20T08:23:32;100718.09;;;21.46;100.00
33404;BME280;19751;40.274;18.268;2023-05-20T08:25:58;100717.81;;;21.47;100.00
33404;BME280;19751;40.274;18.268;2023-05-20T08:28:27;100718.09;;;21.46;100.00
33404;BME280;19751;40.274;18.268;2023-05-20T08:30:52;100716.69;;;21.43;100.00
33404;BME280;19751;40.274;18.268;2023-05-20T08:33:18;100714.50;;;21.40;100.00
33404;BME280;19751;40.274;18.268;2023-05-20T08:35:46;100719.69;;;21.37;100.00
33404;BME280;19751;40.274;18.268;2023-05-20T08:38:11;100729.41;;;21.27;100.00
33404;BME280;19751;40.274;18.268;2023-05-20T08:40:37;100738.69;;;21.21;100.00
33404;BME280;19751;40.274;18.268;2023-05-20T08:43:03;100740.00;;;21.19;100.00
33404;BME280;19751;40.274;18.268;2023-05-20T08:45:31;100735.31;;;21.14;100.00
33404;BME280;19751;40.274;18.268;2023-05-20T08:47:57;100728.16;;;21.08;100.00
33404;BME280;19751;40.274;18.268;2023-05-20T08:50:23;100740.44;;;21.05;100.00
33404;BME280;19751;40.274;18.268;2023-05-20T08:52:48;100736.88;;;21.05;100.00
33404;BME280;19751;40.274;18.268;2023-05-20T08:55:17;100727.56;;;21.06;100.00
33404;BME280;19751;40.274;18.268;2023-05-20T08:57:48;100724.84;;;21.06;100.00
33404;BME280;19751;40.274;18.268;2023-05-20T09:00:15;100736.38;;;21.08;100.00
33404;BME280;19751;40.274;18.268;2023-05-20T09:02:42;100730.63;;;21.09;100.00
33404;BME280;19751;40.274;18.268;2023-05-20T09:05:09;100729.28;;;21.12;100.00
33404;BME280;19751;40.274;18.268;2023-05-20T09:07:36;100727.09;;;21.14;100.00
33404;BME280;19751;40.274;18.268;2023-05-20T09:10:02;100714.81;;;21.17;100.00
33404;BME280;19751;40.274;18.268;2023-05-20T09:12:28;100715.63;;;21.17;100.00
33404;BME280;19751;40.274;18.268;2023-05-20T09:14:53;100703.59;;;21.18;100.00
33404;BME280;19751;40.274;18.268;2023-05-20T09:17:22;100692.13;;;21.21;100.00
33404;BME280;19751;40.274;18.268;2023-05-20T09:19:49;100683.38;;;21.24;100.00
33404;BME280;19751;40.274;18.268;2023-05-20T09:22:24;100666.66;;;21.26;100.00
33404;BME280;19751;40.274;18.268;2023-05-20T09:24:50;100669.69;;;21.24;100.00
33404;BME280;19751;40.274;18.268;2023-05-20T09:27:16;100656.22;;;21.23;100.00
33404;BME280;19751;40.274;18.268;2023-05-20T09:29:42;100649.69;;;21.24;100.00
33404;BME280;19751;40.274;18.268;2023-05-20T09:32:12;100652.44;;;21.24;100.00
33404;BME280;19751;40.274;18.268;2023-05-20T09:34:38;100656.81;;;21.25;100.00
33404;BME280;19751;40.274;18.268;2023-05-20T09:37:05;100654.91;;;21.25;100.00
33404;BME280;19751;40.274;18.268;2023-05-20T09:39:33;100656.53;;;21.26;100.00
33404;BME280;19751;40.274;18.268;2023-05-20T09:42:10;100656.28;;;21.28;100.00
33404;BME280;19751;40.274;18.268;2023-05-20T09:44:37;100649.97;;;21.27;100.00
33404;BME280;19751;40.274;18.268;2023-05-20T09:47:04;100651.63;;;21.28;100.00
33404;BME280;19751;40.274;18.268;2023-05-20T09:49:32;100644.25;;;21.29;100.00
33404;BME280;19751;40.274;18.268;2023-05-20T09:52:01;100653.56;;;21.28;100.00
33404;BME280;19751;40.274;18.268;2023-05-20T09:54:27;100650.25;;;21.31;100.00
33404;BME280;19751;40.274;18.268;2023-05-20T09:56:56;100645.94;;;21.35;100.00
33404;BME280;19751;40.274;18.268;2023-05-20T09:59:22;100639.13;;;21.38;100.00
33404;BME280;19751;40.274;18.268;2023-05-20T10:01:47;100628.44;;;21.36;100.00
33404;BME280;19751;40.274;18.268;2023-05-20T10:04:15;100625.69;;;21.36;100.00
33404;BME280;19751;40.274;18.268;2023-05-20T10:10:07;100630.38;;;21.41;100.00
33404;BME280;19751;40.274;18.268;2023-05-20T10:12:49;100625.72;;;21.41;100.00
33404;BME280;19751;40.274;18.268;2023-05-20T10:15:31;100615.59;;;21.42;100.00
33404;BME280;19751;40.274;18.268;2023-05-20T10:18:17;100611.22;;;21.41;100.00
33404;BME280;19751;40.274;18.268;2023-05-20T10:20:48;100605.16;;;21.39;100.00
33404;BME280;19751;40.274;18.268;2023-05-20T10:23:27;100604.06;;;21.40;100.00
33404;BME280;19751;40.274;18.268;2023-05-20T10:25:55;100604.06;;;21.40;100.00
33404;BME280;19751;40.274;18.268;2023-05-20T10:28:30;100609.53;;;21.40;100.00
33404;BME280;19751;40.274;18.268;2023-05-20T10:30:58;100606.78;;;21.40;100.00
33404;BME280;19751;40.274;18.268;2023-05-20T10:33:27;100618.84;;;21.39;100.00
33404;BME280;19751;40.274;18.268;2023-05-20T10:35:56;100634.47;;;21.38;100.00
33404;BME280;19751;40.274;18.268;2023-05-20T10:38:22;100630.63;;;21.39;100.00
33404;BME280;19751;40.274;18.268;2023-05-20T10:40:47;100652.00;;;21.37;100.00
33404;BME280;19751;40.274;18.268;2023-05-20T10:43:35;100654.47;;;21.39;100.00
33404;BME280;19751;40.274;18.268;2023-05-20T10:46:00;100671.72;;;21.39;99.76
33404;BME280;19751;40.274;18.268;2023-05-20T10:48:30;100686.00;;;21.41;99.02
33404;BME280;19751;40.274;18.268;2023-05-20T10:50:58;100684.91;;;21.42;98.64
33404;BME280;19751;40.274;18.268;2023-05-20T10:53:25;100686.31;;;21.45;97.86
33404;BME280;19751;40.274;18.268;2023-05-20T10:55:52;100687.44;;;21.49;97.59
33404;BME280;19751;40.274;18.268;2023-05-20T10:58:21;100699.78;;;21.51;97.26
33404;BME280;19751;40.274;18.268;2023-05-20T11:00:48;100702.00;;;21.54;97.16
33404;BME280;19751;40.274;18.268;2023-05-20T11:03:15;100705.56;;;21.55;96.91
33404;BME280;19751;40.274;18.268;2023-05-20T11:05:43;100700.09;;;21.60;96.26
33404;BME280;19751;40.274;18.268;2023-05-20T11:08:09;100696.31;;;21.66;95.64
33404;BME280;19751;40.274;18.268;2023-05-20T11:10:35;100697.47;;;21.75;95.03
33404;BME280;19751;40.274;18.268;2023-05-20T11:13:02;100689.84;;;21.82;93.63
33404;BME280;19751;40.274;18.268;2023-05-20T11:15:29;100673.13;;;21.89;93.19
33404;BME280;19751;40.274;18.268;2023-05-20T11:17:56;100668.53;;;22.00;92.77
33404;BME280;19751;40.274;18.268;2023-05-20T11:20:24;100659.81;;;22.08;92.21
33404;BME280;19751;40.274;18.268;2023-05-20T11:22:50;100656.56;;;22.16;90.27
33404;BME280;19751;40.274;18.268;2023-05-20T11:25:17;100664.00;;;22.26;88.67
33404;BME280;19751;40.274;18.268;2023-05-20T11:27:43;100659.38;;;22.31;87.20
33404;BME280;19751;40.274;18.268;2023-05-20T11:30:12;100668.97;;;22.39;86.22
33404;BME280;19751;40.274;18.268;2023-05-20T11:32:43;100666.56;;;22.48;84.55
33404;BME280;19751;40.274;18.268;2023-05-20T11:35:24;100663.25;;;22.51;81.40
33404;BME280;19751;40.274;18.268;2023-05-20T11:38:00;100665.19;;;22.55;80.43
33404;BME280;19751;40.274;18.268;2023-05-20T11:40:27;100660.00;;;22.59;77.73
33404;BME280;19751;40.274;18.268;2023-05-20T11:42:54;100668.22;;;22.64;76.08
33404;BME280;19751;40.274;18.268;2023-05-20T11:45:20;100677.84;;;22.67;74.58
33404;BME280;19751;40.274;18.268;2023-05-20T11:47:46;100671.81;;;22.70;71.94
33404;BME280;19751;40.274;18.268;2023-05-20T11:50:22;100667.44;;;22.74;69.19
33404;BME280;19751;40.274;18.268;2023-05-20T11:52:55;100657.56;;;22.78;67.78
33404;BME280;19751;40.274;18.268;2023-05-20T11:55:21;100655.91;;;22.82;66.81
33404;BME280;19751;40.274;18.268;2023-05-20T11:57:47;100656.75;;;22.82;64.51
33404;BME280;19751;40.274;18.268;2023-05-20T12:00:12;100665.81;;;22.83;64.17
33404;BME280;19751;40.274;18.268;2023-05-20T12:02:38;100662.22;;;22.82;63.44
33404;BME280;19751;40.274;18.268;2023-05-20T12:05:03;100651.25;;;22.82;62.88
33404;BME280;19751;40.274;18.268;2023-05-20T12:07:29;100660.31;;;22.83;62.23
33404;BME280;19751;40.274;18.268;2023-05-20T12:09:54;100663.63;;;22.85;62.14
33404;BME280;19751;40.274;18.268;2023-05-20T12:12:20;100661.41;;;22.87;61.62
33404;BME280;19751;40.274;18.268;2023-05-20T12:14:45;100671.03;;;22.90;61.11
33404;BME280;19751;40.274;18.268;2023-05-20T12:17:11;100663.94;;;22.94;60.60
33404;BME280;19751;40.274;18.268;2023-05-20T12:19:36;100658.44;;;22.99;59.49
33404;BME280;19751;40.274;18.268;2023-05-20T12:22:02;100661.47;;;23.07;58.97
33404;BME280;19751;40.274;18.268;2023-05-20T12:24:27;100662.56;;;23.17;57.93
33404;BME280;19751;40.274;18.268;2023-05-20T12:26:53;100670.25;;;23.25;57.44
33404;BME280;19751;40.274;18.268;2023-05-20T12:29:18;100668.59;;;23.29;57.21
33404;BME280;19751;40.274;18.268;2023-05-20T12:31:44;100672.97;;;23.30;57.06